EXS35PE LTBS-EGCC
Flight info
| Callsign | EXS35PE |
|---|---|
| Flight time | 4h 7m |
| Altitude | 38000 |
| Route | KEKIK N127 UFQUM UN127 LMO DCT FSK UL608 DISOR DCT LONTA UL608 DOLEV DCT GENLU DCT PODOB DCT KOMAR DCT DEVUL DCT DOL DCT EVAXI DCT NANIT DCT ERKIR DCT BABEG DCT LIRSU DCT DENUT L610 RAPIX DCT ELVOS |
| Aircraft | A321/M-SDE3FGHIRWY/LB1 |
Departure
| Time | 2026-04-25 17:50 |
|---|---|
| Airport | Dalaman International Airport (LTBS) |
Arrival
| Time | 2026-04-25 21:57 |
|---|---|
| Airport | Manchester Airport (EGCC) |
| Time | Latitude | Longitude | Altitude | Speed | Heading |
|---|---|---|---|---|---|
| 2026-04-25 17:08 | 36.72223 | 28.79047 | 12 ft | 0 kts | 285° |
| 2026-04-25 17:38 | 36.72219 | 28.79062 | 12 ft | 4 kts | 290° |
| 2026-04-25 17:38 | 36.72208 | 28.79092 | 14 ft | 4 kts | 310° |
| 2026-04-25 17:39 | 36.72188 | 28.79110 | 12 ft | 4 kts | 353° |
| 2026-04-25 17:39 | 36.72173 | 28.79109 | 15 ft | 1 kts | 15° |
| 2026-04-25 17:39 | 36.72171 | 28.79109 | 15 ft | 0 kts | 15° |
| 2026-04-25 17:43 | 36.72178 | 28.79111 | 12 ft | 5 kts | 15° |
| 2026-04-25 17:43 | 36.72274 | 28.79144 | 12 ft | 18 kts | 17° |
| 2026-04-25 17:43 | 36.72286 | 28.79283 | 14 ft | 17 kts | 104° |
| 2026-04-25 17:43 | 36.72325 | 28.79386 | 12 ft | 14 kts | 18° |
| 2026-04-25 17:44 | 36.72413 | 28.79413 | 12 ft | 12 kts | 12° |
| 2026-04-25 17:44 | 36.72490 | 28.79439 | 12 ft | 11 kts | 15° |
| 2026-04-25 17:44 | 36.72590 | 28.79472 | 12 ft | 13 kts | 15° |
| 2026-04-25 17:44 | 36.72641 | 28.79551 | 12 ft | 0 kts | 93° |
| 2026-04-25 17:45 | 36.72641 | 28.79552 | 12 ft | 0 kts | 96° |
| 2026-04-25 17:48 | 36.72639 | 28.79565 | 12 ft | 7 kts | 99° |
| 2026-04-25 17:48 | 36.72569 | 28.79666 | 12 ft | 22 kts | 163° |
| 2026-04-25 17:49 | 36.72412 | 28.79626 | 12 ft | 38 kts | 195° |
| 2026-04-25 17:49 | 36.71923 | 28.79457 | 12 ft | 105 kts | 195° |
| 2026-04-25 17:49 | 36.71039 | 28.79155 | 15 ft | 155 kts | 195° |
| 2026-04-25 17:49 | 36.69928 | 28.78773 | 406 ft | 166 kts | 195° |
| 2026-04-25 17:50 | 36.68813 | 28.78395 | 1038 ft | 166 kts | 195° |
| 2026-04-25 17:50 | 36.67693 | 28.78015 | 1652 ft | 167 kts | 195° |
| 2026-04-25 17:50 | 36.66555 | 28.77629 | 1957 ft | 177 kts | 195° |
| 2026-04-25 17:50 | 36.65301 | 28.77205 | 2102 ft | 195 kts | 195° |
| 2026-04-25 17:51 | 36.63935 | 28.76735 | 2225 ft | 213 kts | 198° |
| 2026-04-25 17:51 | 36.62682 | 28.75674 | 2346 ft | 230 kts | 237° |
| 2026-04-25 17:51 | 36.62226 | 28.73748 | 2477 ft | 248 kts | 273° |
| 2026-04-25 17:51 | 36.62500 | 28.71553 | 2808 ft | 263 kts | 287° |
| 2026-04-25 17:52 | 36.63048 | 28.69340 | 3418 ft | 268 kts | 290° |
| 2026-04-25 17:52 | 36.63452 | 28.67875 | 3844 ft | 271 kts | 291° |
| 2026-04-25 17:52 | 36.64275 | 28.64858 | 4717 ft | 278 kts | 290° |
| 2026-04-25 17:52 | 36.64875 | 28.62552 | 5332 ft | 282 kts | 291° |
| 2026-04-25 17:53 | 36.65761 | 28.60399 | 5938 ft | 285 kts | 306° |
| 2026-04-25 17:53 | 36.67073 | 28.58521 | 6534 ft | 289 kts | 320° |
| 2026-04-25 17:53 | 36.68658 | 28.56939 | 7129 ft | 293 kts | 322° |
| 2026-04-25 17:53 | 36.70259 | 28.55350 | 7734 ft | 296 kts | 321° |
| 2026-04-25 17:54 | 36.71881 | 28.53732 | 8344 ft | 300 kts | 321° |
| 2026-04-25 17:54 | 36.73518 | 28.52093 | 8954 ft | 304 kts | 321° |
| 2026-04-25 17:54 | 36.75176 | 28.50434 | 9562 ft | 307 kts | 320° |
| 2026-04-25 17:54 | 36.76869 | 28.48775 | 10122 ft | 311 kts | 324° |
| 2026-04-25 17:55 | 36.78782 | 28.47435 | 10491 ft | 324 kts | 337° |
| 2026-04-25 17:55 | 36.80965 | 28.46553 | 10621 ft | 342 kts | 345° |
| 2026-04-25 17:55 | 36.83323 | 28.45718 | 10753 ft | 361 kts | 344° |
| 2026-04-25 17:55 | 36.85783 | 28.44836 | 11071 ft | 371 kts | 344° |
| 2026-04-25 17:56 | 36.88287 | 28.43926 | 11596 ft | 375 kts | 344° |
| 2026-04-25 17:56 | 36.90801 | 28.43007 | 12241 ft | 377 kts | 344° |
| 2026-04-25 17:56 | 36.93332 | 28.42079 | 12834 ft | 380 kts | 344° |
| 2026-04-25 17:56 | 36.95015 | 28.41463 | 13207 ft | 382 kts | 344° |
| 2026-04-25 17:57 | 36.98412 | 28.40219 | 13946 ft | 386 kts | 344° |
| 2026-04-25 17:57 | 37.01007 | 28.39271 | 14424 ft | 389 kts | 344° |
| 2026-04-25 17:57 | 37.03615 | 28.38322 | 14922 ft | 391 kts | 344° |
| 2026-04-25 17:57 | 37.04498 | 28.38002 | 15100 ft | 391 kts | 344° |
| 2026-04-25 17:58 | 37.07850 | 28.36299 | 15798 ft | 395 kts | 331° |
| 2026-04-25 17:58 | 37.10128 | 28.34349 | 16289 ft | 398 kts | 320° |
| 2026-04-25 17:58 | 37.12231 | 28.32050 | 16781 ft | 401 kts | 319° |
| 2026-04-25 17:58 | 37.14337 | 28.29741 | 17251 ft | 403 kts | 319° |
| 2026-04-25 17:59 | 37.16470 | 28.27419 | 17742 ft | 406 kts | 319° |
| 2026-04-25 17:59 | 37.18620 | 28.25099 | 18190 ft | 409 kts | 320° |
| 2026-04-25 17:59 | 37.20760 | 28.22800 | 18610 ft | 411 kts | 320° |
| 2026-04-25 17:59 | 37.22943 | 28.20455 | 19027 ft | 413 kts | 320° |
| 2026-04-25 18:00 | 37.25137 | 28.18095 | 19431 ft | 415 kts | 319° |
| 2026-04-25 18:00 | 37.27334 | 28.15729 | 19828 ft | 417 kts | 319° |
| 2026-04-25 18:00 | 37.29543 | 28.13342 | 20227 ft | 419 kts | 319° |
| 2026-04-25 18:00 | 37.31760 | 28.10940 | 20627 ft | 421 kts | 319° |
| 2026-04-25 18:01 | 37.33983 | 28.08522 | 21022 ft | 423 kts | 319° |
| 2026-04-25 18:01 | 37.36185 | 28.06120 | 21426 ft | 425 kts | 319° |
| 2026-04-25 18:01 | 37.38419 | 28.03677 | 21823 ft | 426 kts | 319° |
| 2026-04-25 18:01 | 37.40667 | 28.01216 | 22214 ft | 428 kts | 319° |
| 2026-04-25 18:02 | 37.42923 | 27.98746 | 22613 ft | 430 kts | 319° |
| 2026-04-25 18:02 | 37.45191 | 27.96268 | 22968 ft | 433 kts | 319° |
| 2026-04-25 18:02 | 37.47483 | 27.93761 | 23303 ft | 436 kts | 319° |
| 2026-04-25 18:02 | 37.49747 | 27.91277 | 23664 ft | 437 kts | 319° |
| 2026-04-25 18:03 | 37.52048 | 27.88749 | 23959 ft | 440 kts | 319° |
| 2026-04-25 18:03 | 37.54363 | 27.86206 | 24249 ft | 442 kts | 319° |
| 2026-04-25 18:03 | 37.56690 | 27.83650 | 24557 ft | 443 kts | 320° |
| 2026-04-25 18:03 | 37.59020 | 27.81088 | 24846 ft | 445 kts | 319° |
| 2026-04-25 18:04 | 37.61359 | 27.78513 | 25169 ft | 446 kts | 319° |
| 2026-04-25 18:04 | 37.63702 | 27.75932 | 25468 ft | 448 kts | 320° |
| 2026-04-25 18:04 | 37.66051 | 27.73343 | 25741 ft | 450 kts | 320° |
| 2026-04-25 18:04 | 37.68385 | 27.70770 | 26019 ft | 452 kts | 320° |
| 2026-04-25 18:05 | 37.70757 | 27.68151 | 26313 ft | 453 kts | 320° |
| 2026-04-25 18:05 | 37.73131 | 27.65523 | 26585 ft | 455 kts | 320° |
| 2026-04-25 18:05 | 37.75522 | 27.62874 | 26881 ft | 456 kts | 320° |
| 2026-04-25 18:05 | 37.77915 | 27.60224 | 27154 ft | 458 kts | 320° |
| 2026-04-25 18:06 | 37.80322 | 27.57555 | 27415 ft | 459 kts | 320° |
| 2026-04-25 18:06 | 37.82704 | 27.54907 | 27675 ft | 461 kts | 320° |
| 2026-04-25 18:06 | 37.85119 | 27.52222 | 27944 ft | 463 kts | 320° |
| 2026-04-25 18:06 | 37.87548 | 27.49522 | 28169 ft | 465 kts | 320° |
| 2026-04-25 18:07 | 37.89981 | 27.46821 | 28411 ft | 466 kts | 320° |
| 2026-04-25 18:07 | 37.92438 | 27.44116 | 28686 ft | 467 kts | 321° |
| 2026-04-25 18:07 | 37.94872 | 27.41448 | 28925 ft | 469 kts | 321° |
| 2026-04-25 18:07 | 37.97354 | 27.38736 | 29161 ft | 470 kts | 321° |
| 2026-04-25 18:08 | 37.99843 | 27.36017 | 29402 ft | 472 kts | 321° |
| 2026-04-25 18:08 | 38.02340 | 27.33282 | 29707 ft | 472 kts | 320° |
| 2026-04-25 18:08 | 38.04785 | 27.30591 | 30099 ft | 469 kts | 320° |
| 2026-04-25 18:08 | 38.07249 | 27.27876 | 30418 ft | 468 kts | 320° |
| 2026-04-25 18:09 | 38.09701 | 27.25172 | 30712 ft | 467 kts | 320° |
| 2026-04-25 18:09 | 38.12154 | 27.22464 | 31022 ft | 466 kts | 320° |
| 2026-04-25 18:09 | 38.14598 | 27.19760 | 31320 ft | 465 kts | 320° |
| 2026-04-25 18:09 | 38.16211 | 27.17973 | 31509 ft | 464 kts | 320° |
| 2026-04-25 18:10 | 38.19435 | 27.14399 | 31932 ft | 462 kts | 320° |
| 2026-04-25 18:10 | 38.21854 | 27.11719 | 32241 ft | 461 kts | 320° |
| 2026-04-25 18:10 | 38.24276 | 27.09036 | 32541 ft | 460 kts | 320° |
| 2026-04-25 18:10 | 38.26697 | 27.06352 | 32835 ft | 459 kts | 320° |
| 2026-04-25 18:11 | 38.29100 | 27.03681 | 33127 ft | 458 kts | 320° |
| 2026-04-25 18:11 | 38.31493 | 27.01012 | 33401 ft | 457 kts | 319° |
| 2026-04-25 18:11 | 38.33883 | 26.98352 | 33708 ft | 455 kts | 320° |
| 2026-04-25 18:11 | 38.36270 | 26.95707 | 33984 ft | 454 kts | 320° |
| 2026-04-25 18:12 | 38.38628 | 26.93104 | 34203 ft | 454 kts | 320° |
| 2026-04-25 18:12 | 38.41013 | 26.90474 | 34414 ft | 453 kts | 320° |
| 2026-04-25 18:12 | 38.43401 | 26.87843 | 34627 ft | 453 kts | 320° |
| 2026-04-25 18:12 | 38.45786 | 26.85216 | 34841 ft | 452 kts | 320° |
| 2026-04-25 18:13 | 38.48168 | 26.82581 | 35059 ft | 451 kts | 320° |
| 2026-04-25 18:13 | 38.50533 | 26.79955 | 35263 ft | 450 kts | 320° |
| 2026-04-25 18:13 | 38.52895 | 26.77328 | 35455 ft | 450 kts | 320° |
| 2026-04-25 18:14 | 38.57595 | 26.72103 | 35815 ft | 449 kts | 320° |
| 2026-04-25 18:14 | 38.59952 | 26.69485 | 35980 ft | 449 kts | 320° |
| 2026-04-25 18:14 | 38.62318 | 26.66854 | 36133 ft | 449 kts | 320° |
| 2026-04-25 18:14 | 38.64677 | 26.64226 | 36306 ft | 448 kts | 320° |
| 2026-04-25 18:15 | 38.67029 | 26.61602 | 36476 ft | 447 kts | 320° |
| 2026-04-25 18:15 | 38.69348 | 26.59012 | 36636 ft | 447 kts | 320° |
| 2026-04-25 18:15 | 38.71693 | 26.56388 | 36782 ft | 447 kts | 320° |
| 2026-04-25 18:15 | 38.74033 | 26.53771 | 36926 ft | 446 kts | 320° |
| 2026-04-25 18:16 | 38.76374 | 26.51155 | 37066 ft | 446 kts | 320° |
| 2026-04-25 18:16 | 38.78719 | 26.48530 | 37208 ft | 445 kts | 320° |
| 2026-04-25 18:16 | 38.83353 | 26.43323 | 37485 ft | 444 kts | 320° |
| 2026-04-25 18:17 | 38.85698 | 26.40735 | 37610 ft | 443 kts | 321° |
| 2026-04-25 18:17 | 38.88063 | 26.38203 | 37752 ft | 442 kts | 322° |
| 2026-04-25 18:17 | 38.90440 | 26.35708 | 37917 ft | 440 kts | 322° |
| 2026-04-25 18:18 | 38.95209 | 26.30726 | 38000 ft | 441 kts | 322° |
| 2026-04-25 18:18 | 38.99957 | 26.25707 | 37994 ft | 442 kts | 322° |
| 2026-04-25 18:19 | 39.04685 | 26.20650 | 38006 ft | 442 kts | 322° |
| 2026-04-25 18:19 | 39.09419 | 26.15572 | 38005 ft | 442 kts | 322° |
| 2026-04-25 18:20 | 39.14121 | 26.10539 | 38012 ft | 442 kts | 322° |
| 2026-04-25 18:20 | 39.18858 | 26.05466 | 38010 ft | 443 kts | 322° |
| 2026-04-25 18:21 | 39.23597 | 26.00384 | 38021 ft | 443 kts | 321° |
| 2026-04-25 18:21 | 39.28307 | 25.95314 | 38026 ft | 443 kts | 321° |
| 2026-04-25 18:22 | 39.33019 | 25.90169 | 38033 ft | 443 kts | 321° |
| 2026-04-25 18:22 | 39.37682 | 25.84942 | 38036 ft | 443 kts | 321° |
| 2026-04-25 18:23 | 39.42338 | 25.79710 | 38035 ft | 443 kts | 321° |
| 2026-04-25 18:23 | 39.46970 | 25.74514 | 38038 ft | 442 kts | 321° |
| 2026-04-25 18:24 | 39.51627 | 25.69304 | 38040 ft | 442 kts | 321° |
| 2026-04-25 18:24 | 39.56282 | 25.64084 | 38036 ft | 441 kts | 321° |
| 2026-04-25 18:25 | 39.60924 | 25.58871 | 38042 ft | 440 kts | 321° |
| 2026-04-25 18:25 | 39.65526 | 25.53687 | 38043 ft | 440 kts | 321° |
| 2026-04-25 18:26 | 39.70143 | 25.48469 | 38047 ft | 439 kts | 321° |
| 2026-04-25 18:26 | 39.74763 | 25.43242 | 38045 ft | 439 kts | 321° |
| 2026-04-25 18:27 | 39.79347 | 25.38060 | 38046 ft | 439 kts | 321° |
| 2026-04-25 18:27 | 39.83957 | 25.32832 | 38040 ft | 439 kts | 321° |
| 2026-04-25 18:28 | 39.88534 | 25.27625 | 38020 ft | 438 kts | 321° |
| 2026-04-25 18:28 | 39.92883 | 25.22012 | 38020 ft | 441 kts | 309° |
| 2026-04-25 18:29 | 39.98196 | 25.12224 | 38019 ft | 442 kts | 307° |
| 2026-04-25 18:30 | 40.05294 | 24.99098 | 38024 ft | 442 kts | 308° |
| 2026-04-25 18:30 | 40.08844 | 24.92521 | 38042 ft | 443 kts | 308° |
| 2026-04-25 18:31 | 40.12373 | 24.85973 | 38045 ft | 443 kts | 308° |
| 2026-04-25 18:31 | 40.15917 | 24.79375 | 38047 ft | 443 kts | 308° |
| 2026-04-25 18:32 | 40.19464 | 24.72757 | 38048 ft | 443 kts | 307° |
| 2026-04-25 18:32 | 40.22997 | 24.66138 | 38049 ft | 443 kts | 307° |
| 2026-04-25 18:33 | 40.26512 | 24.59554 | 38050 ft | 443 kts | 307° |
| 2026-04-25 18:33 | 40.30051 | 24.52921 | 38050 ft | 443 kts | 307° |
| 2026-04-25 18:34 | 40.33573 | 24.46290 | 38050 ft | 443 kts | 307° |
| 2026-04-25 18:34 | 40.37076 | 24.39680 | 38045 ft | 443 kts | 307° |
| 2026-04-25 18:35 | 40.40596 | 24.33042 | 38050 ft | 443 kts | 308° |
| 2026-04-25 18:35 | 40.44111 | 24.26386 | 38049 ft | 442 kts | 307° |
| 2026-04-25 18:36 | 40.47609 | 24.19735 | 38051 ft | 442 kts | 307° |
| 2026-04-25 18:36 | 40.51109 | 24.13080 | 38045 ft | 442 kts | 307° |
| 2026-04-25 18:37 | 40.54583 | 24.06460 | 38038 ft | 442 kts | 308° |
| 2026-04-25 18:37 | 40.58080 | 23.99779 | 38045 ft | 442 kts | 307° |
| 2026-04-25 18:38 | 40.61567 | 23.93105 | 38046 ft | 442 kts | 307° |
| 2026-04-25 18:38 | 40.65026 | 23.86463 | 38046 ft | 442 kts | 307° |
| 2026-04-25 18:39 | 40.68501 | 23.79776 | 38046 ft | 441 kts | 307° |
| 2026-04-25 18:39 | 40.71983 | 23.73076 | 38027 ft | 441 kts | 307° |
| 2026-04-25 18:40 | 40.75426 | 23.66436 | 38038 ft | 441 kts | 307° |
| 2026-04-25 18:40 | 40.78303 | 23.60869 | 38037 ft | 440 kts | 307° |
| 2026-04-25 18:41 | 40.81762 | 23.54171 | 38036 ft | 440 kts | 307° |
| 2026-04-25 18:41 | 40.85194 | 23.47521 | 38036 ft | 440 kts | 307° |
| 2026-04-25 18:42 | 40.88059 | 23.41956 | 38023 ft | 440 kts | 307° |
| 2026-04-25 18:42 | 40.92069 | 23.34132 | 38024 ft | 440 kts | 307° |
| 2026-04-25 18:43 | 40.95495 | 23.27421 | 38028 ft | 440 kts | 307° |
| 2026-04-25 18:43 | 40.98919 | 23.20694 | 38029 ft | 439 kts | 307° |
| 2026-04-25 18:44 | 41.02327 | 23.14027 | 38030 ft | 439 kts | 307° |
| 2026-04-25 18:44 | 41.05748 | 23.07293 | 38018 ft | 439 kts | 307° |
| 2026-04-25 18:45 | 41.09162 | 23.00567 | 38047 ft | 439 kts | 307° |
| 2026-04-25 18:45 | 41.12949 | 22.94333 | 38039 ft | 435 kts | 313° |
| 2026-04-25 18:46 | 41.16866 | 22.88190 | 38033 ft | 435 kts | 313° |
| 2026-04-25 18:46 | 41.20779 | 22.82041 | 38022 ft | 435 kts | 313° |
| 2026-04-25 18:47 | 41.24678 | 22.75894 | 38017 ft | 435 kts | 313° |
| 2026-04-25 18:47 | 41.28660 | 22.69904 | 38022 ft | 434 kts | 315° |
| 2026-04-25 18:48 | 41.32765 | 22.64011 | 38039 ft | 434 kts | 315° |
| 2026-04-25 18:48 | 41.36869 | 22.58086 | 38029 ft | 434 kts | 315° |
| 2026-04-25 18:49 | 41.40907 | 22.52166 | 38041 ft | 433 kts | 314° |
| 2026-04-25 18:49 | 41.44952 | 22.46197 | 38042 ft | 433 kts | 314° |
| 2026-04-25 18:50 | 41.48991 | 22.40224 | 38030 ft | 432 kts | 314° |
| 2026-04-25 18:50 | 41.53006 | 22.34299 | 38035 ft | 432 kts | 314° |
| 2026-04-25 18:51 | 41.56360 | 22.29332 | 38029 ft | 432 kts | 314° |
| 2026-04-25 18:51 | 41.61066 | 22.22349 | 38028 ft | 432 kts | 314° |
| 2026-04-25 18:52 | 41.65067 | 22.16399 | 38024 ft | 431 kts | 314° |
| 2026-04-25 18:52 | 41.69074 | 22.10437 | 38021 ft | 431 kts | 314° |
| 2026-04-25 18:53 | 41.73075 | 22.04460 | 38027 ft | 430 kts | 314° |
| 2026-04-25 18:53 | 41.77070 | 21.98491 | 38030 ft | 430 kts | 314° |
| 2026-04-25 18:54 | 41.83033 | 21.89558 | 38032 ft | 429 kts | 314° |
| 2026-04-25 18:55 | 41.87015 | 21.83568 | 38027 ft | 429 kts | 314° |
| 2026-04-25 18:55 | 41.90982 | 21.77578 | 38014 ft | 429 kts | 313° |
| 2026-04-25 18:56 | 41.94949 | 21.71593 | 38014 ft | 429 kts | 313° |
| 2026-04-25 18:56 | 41.98923 | 21.65599 | 38046 ft | 428 kts | 313° |
| 2026-04-25 18:57 | 42.02859 | 21.59637 | 38046 ft | 428 kts | 313° |
| 2026-04-25 18:57 | 42.06801 | 21.53643 | 38038 ft | 427 kts | 313° |
| 2026-04-25 18:58 | 42.10752 | 21.47630 | 38034 ft | 427 kts | 313° |
| 2026-04-25 18:58 | 42.16642 | 21.38644 | 38041 ft | 428 kts | 313° |
| 2026-04-25 18:59 | 42.24360 | 21.26409 | 38058 ft | 428 kts | 311° |
| 2026-04-25 19:00 | 42.30109 | 21.17238 | 38061 ft | 427 kts | 311° |
| 2026-04-25 19:01 | 42.35851 | 21.08085 | 38057 ft | 426 kts | 311° |
| 2026-04-25 19:01 | 42.39686 | 21.01953 | 38073 ft | 425 kts | 311° |
| 2026-04-25 19:02 | 42.45392 | 20.92800 | 38073 ft | 424 kts | 311° |
| 2026-04-25 19:03 | 42.49845 | 20.85636 | 38075 ft | 424 kts | 311° |
| 2026-04-25 19:03 | 42.54907 | 20.77486 | 38066 ft | 423 kts | 311° |
| 2026-04-25 19:04 | 42.60563 | 20.68341 | 38061 ft | 422 kts | 311° |
| 2026-04-25 19:05 | 42.68112 | 20.56090 | 38052 ft | 422 kts | 311° |
| 2026-04-25 19:06 | 42.71878 | 20.49957 | 38050 ft | 422 kts | 310° |
| 2026-04-25 19:06 | 42.77503 | 20.40763 | 38058 ft | 422 kts | 310° |
| 2026-04-25 19:07 | 42.83142 | 20.31525 | 38062 ft | 422 kts | 310° |
| 2026-04-25 19:08 | 42.88744 | 20.22334 | 38062 ft | 421 kts | 310° |
| 2026-04-25 19:09 | 42.95594 | 20.11065 | 38056 ft | 420 kts | 310° |
| 2026-04-25 19:10 | 43.01793 | 20.00805 | 38064 ft | 420 kts | 310° |
| 2026-04-25 19:10 | 43.05519 | 19.94623 | 38063 ft | 420 kts | 310° |
| 2026-04-25 19:11 | 43.09240 | 19.88445 | 38061 ft | 420 kts | 310° |
| 2026-04-25 19:11 | 43.12951 | 19.82263 | 38059 ft | 420 kts | 309° |
| 2026-04-25 19:12 | 43.16636 | 19.76107 | 38050 ft | 419 kts | 309° |
| 2026-04-25 19:12 | 43.20321 | 19.69940 | 38056 ft | 419 kts | 309° |
| 2026-04-25 19:13 | 43.24021 | 19.63733 | 38058 ft | 419 kts | 309° |
| 2026-04-25 19:13 | 43.27719 | 19.57530 | 38056 ft | 419 kts | 309° |
| 2026-04-25 19:14 | 43.31395 | 19.51368 | 38060 ft | 419 kts | 309° |
| 2026-04-25 19:14 | 43.35085 | 19.45153 | 38056 ft | 418 kts | 309° |
| 2026-04-25 19:15 | 43.38746 | 19.38948 | 38058 ft | 418 kts | 309° |
| 2026-04-25 19:15 | 43.42411 | 19.32732 | 38054 ft | 417 kts | 309° |
| 2026-04-25 19:16 | 43.46049 | 19.26556 | 38053 ft | 417 kts | 309° |
| 2026-04-25 19:16 | 43.49695 | 19.20344 | 38044 ft | 416 kts | 309° |
| 2026-04-25 19:17 | 43.53324 | 19.14161 | 38041 ft | 416 kts | 309° |
| 2026-04-25 19:17 | 43.57086 | 19.08066 | 38043 ft | 417 kts | 311° |
| 2026-04-25 19:18 | 43.60949 | 19.02071 | 38053 ft | 416 kts | 311° |
| 2026-04-25 19:18 | 43.64762 | 18.96127 | 38051 ft | 416 kts | 310° |
| 2026-04-25 19:19 | 43.68568 | 18.90113 | 38053 ft | 415 kts | 310° |
| 2026-04-25 19:19 | 43.72345 | 18.84084 | 38055 ft | 414 kts | 310° |
| 2026-04-25 19:20 | 43.76106 | 18.78064 | 38051 ft | 414 kts | 310° |
| 2026-04-25 19:20 | 43.79872 | 18.72052 | 38057 ft | 414 kts | 310° |
| 2026-04-25 19:21 | 43.83647 | 18.66017 | 38061 ft | 414 kts | 310° |
| 2026-04-25 19:21 | 43.89280 | 18.56988 | 38071 ft | 413 kts | 309° |
| 2026-04-25 19:22 | 43.93031 | 18.50946 | 38071 ft | 413 kts | 309° |
| 2026-04-25 19:23 | 43.98651 | 18.41861 | 38068 ft | 413 kts | 309° |
| 2026-04-25 19:23 | 44.04245 | 18.32806 | 38061 ft | 413 kts | 309° |
| 2026-04-25 19:24 | 44.07379 | 18.27725 | 38056 ft | 413 kts | 309° |
| 2026-04-25 19:25 | 44.14836 | 18.15610 | 38055 ft | 412 kts | 309° |
| 2026-04-25 19:25 | 44.18534 | 18.09565 | 38042 ft | 411 kts | 309° |
| 2026-04-25 19:26 | 44.22246 | 18.03477 | 38046 ft | 411 kts | 309° |
| 2026-04-25 19:26 | 44.25955 | 17.97389 | 38047 ft | 411 kts | 309° |
| 2026-04-25 19:27 | 44.29039 | 17.92337 | 38041 ft | 411 kts | 309° |
| 2026-04-25 19:27 | 44.33345 | 17.85260 | 38045 ft | 411 kts | 309° |
| 2026-04-25 19:28 | 44.37050 | 17.79150 | 38049 ft | 411 kts | 308° |
| 2026-04-25 19:28 | 44.40742 | 17.73040 | 38051 ft | 411 kts | 308° |
| 2026-04-25 19:29 | 44.44433 | 17.66926 | 38049 ft | 411 kts | 308° |
| 2026-04-25 19:29 | 44.48094 | 17.60853 | 38046 ft | 411 kts | 308° |
| 2026-04-25 19:30 | 44.51784 | 17.54713 | 38052 ft | 410 kts | 308° |
| 2026-04-25 19:30 | 44.55469 | 17.48582 | 38051 ft | 410 kts | 308° |
| 2026-04-25 19:31 | 44.59132 | 17.42473 | 38046 ft | 411 kts | 308° |
| 2026-04-25 19:31 | 44.62811 | 17.36313 | 38042 ft | 411 kts | 308° |
| 2026-04-25 19:32 | 44.66458 | 17.30189 | 38055 ft | 410 kts | 307° |
| 2026-04-25 19:32 | 44.69499 | 17.25073 | 38036 ft | 409 kts | 307° |
| 2026-04-25 19:33 | 44.73767 | 17.17881 | 38029 ft | 409 kts | 307° |
| 2026-04-25 19:33 | 44.77386 | 17.11751 | 38029 ft | 409 kts | 307° |
| 2026-04-25 19:34 | 44.81015 | 17.05585 | 38027 ft | 409 kts | 307° |
| 2026-04-25 19:34 | 44.84652 | 16.99416 | 38028 ft | 409 kts | 307° |
| 2026-04-25 19:35 | 44.88280 | 16.93257 | 38033 ft | 408 kts | 307° |
| 2026-04-25 19:35 | 44.91886 | 16.87113 | 38037 ft | 408 kts | 307° |
| 2026-04-25 19:36 | 44.95502 | 16.80923 | 38027 ft | 406 kts | 305° |
| 2026-04-25 19:36 | 44.98687 | 16.74372 | 38017 ft | 404 kts | 301° |
| 2026-04-25 19:37 | 45.01805 | 16.67812 | 38012 ft | 404 kts | 301° |
| 2026-04-25 19:37 | 45.04946 | 16.61193 | 38004 ft | 404 kts | 301° |
| 2026-04-25 19:38 | 45.08066 | 16.54618 | 38006 ft | 404 kts | 301° |
| 2026-04-25 19:38 | 45.11195 | 16.48004 | 38011 ft | 404 kts | 301° |
| 2026-04-25 19:39 | 45.14527 | 16.41559 | 38006 ft | 406 kts | 307° |
| 2026-04-25 19:39 | 45.18154 | 16.35410 | 38015 ft | 407 kts | 306° |
| 2026-04-25 19:40 | 45.21778 | 16.29253 | 38019 ft | 407 kts | 306° |
| 2026-04-25 19:40 | 45.25380 | 16.23125 | 38014 ft | 406 kts | 306° |
| 2026-04-25 19:41 | 45.28996 | 16.16958 | 38009 ft | 406 kts | 306° |
| 2026-04-25 19:41 | 45.31999 | 16.11825 | 38007 ft | 406 kts | 306° |
| 2026-04-25 19:42 | 45.36214 | 16.04592 | 38007 ft | 406 kts | 306° |
| 2026-04-25 19:42 | 45.39815 | 15.98399 | 38006 ft | 406 kts | 306° |
| 2026-04-25 19:43 | 45.43404 | 15.92225 | 38008 ft | 406 kts | 306° |
| 2026-04-25 19:43 | 45.47014 | 15.86002 | 38022 ft | 406 kts | 306° |
| 2026-04-25 19:44 | 45.50604 | 15.79789 | 38016 ft | 406 kts | 306° |
| 2026-04-25 19:44 | 45.54206 | 15.73539 | 38001 ft | 406 kts | 306° |
| 2026-04-25 19:45 | 45.57797 | 15.67298 | 38003 ft | 407 kts | 306° |
| 2026-04-25 19:45 | 45.61369 | 15.61068 | 38002 ft | 407 kts | 306° |
| 2026-04-25 19:46 | 45.64964 | 15.54787 | 38001 ft | 408 kts | 306° |
| 2026-04-25 19:46 | 45.68550 | 15.48529 | 38007 ft | 408 kts | 306° |
| 2026-04-25 19:47 | 45.72145 | 15.42231 | 38012 ft | 408 kts | 306° |
| 2026-04-25 19:47 | 45.75733 | 15.35920 | 38011 ft | 408 kts | 306° |
| 2026-04-25 19:48 | 45.79323 | 15.29609 | 38015 ft | 409 kts | 306° |
| 2026-04-25 19:48 | 45.82892 | 15.23315 | 38021 ft | 409 kts | 306° |
| 2026-04-25 19:49 | 45.85295 | 15.19065 | 38021 ft | 408 kts | 306° |
| 2026-04-25 19:49 | 45.90034 | 15.10661 | 38033 ft | 408 kts | 306° |
| 2026-04-25 19:50 | 45.95404 | 15.01118 | 38031 ft | 409 kts | 306° |
| 2026-04-25 19:51 | 45.98979 | 14.94741 | 38043 ft | 409 kts | 306° |
| 2026-04-25 19:51 | 46.02529 | 14.88388 | 38042 ft | 410 kts | 306° |
| 2026-04-25 19:52 | 46.06112 | 14.81960 | 38044 ft | 410 kts | 306° |
| 2026-04-25 19:52 | 46.09677 | 14.75589 | 38046 ft | 410 kts | 306° |
| 2026-04-25 19:53 | 46.13273 | 14.69199 | 38040 ft | 410 kts | 306° |
| 2026-04-25 19:53 | 46.16863 | 14.62795 | 38044 ft | 410 kts | 306° |
| 2026-04-25 19:54 | 46.20420 | 14.56420 | 38044 ft | 409 kts | 306° |
| 2026-04-25 19:54 | 46.24001 | 14.49990 | 38042 ft | 410 kts | 306° |
| 2026-04-25 19:55 | 46.27578 | 14.43566 | 38046 ft | 411 kts | 306° |
| 2026-04-25 19:55 | 46.31148 | 14.37143 | 38036 ft | 412 kts | 306° |
| 2026-04-25 19:56 | 46.34745 | 14.30655 | 38032 ft | 413 kts | 306° |
| 2026-04-25 19:56 | 46.38343 | 14.24153 | 38031 ft | 413 kts | 306° |
| 2026-04-25 19:57 | 46.41913 | 14.17680 | 38026 ft | 413 kts | 306° |
| 2026-04-25 19:57 | 46.45506 | 14.11142 | 38021 ft | 414 kts | 306° |
| 2026-04-25 19:58 | 46.49073 | 14.04554 | 38010 ft | 415 kts | 306° |
| 2026-04-25 19:58 | 46.52622 | 13.97936 | 38019 ft | 415 kts | 306° |
| 2026-04-25 19:59 | 46.56152 | 13.91357 | 38014 ft | 415 kts | 306° |
| 2026-04-25 19:59 | 46.59711 | 13.84722 | 38006 ft | 416 kts | 307° |
| 2026-04-25 20:00 | 46.63272 | 13.78061 | 38027 ft | 416 kts | 307° |
| 2026-04-25 20:00 | 46.66803 | 13.71430 | 38043 ft | 416 kts | 306° |
| 2026-04-25 20:01 | 46.72121 | 13.61405 | 38043 ft | 416 kts | 306° |
| 2026-04-25 20:01 | 46.75644 | 13.54761 | 38050 ft | 416 kts | 306° |
| 2026-04-25 20:02 | 46.79189 | 13.48066 | 38054 ft | 416 kts | 307° |
| 2026-04-25 20:02 | 46.82728 | 13.41356 | 38069 ft | 416 kts | 307° |
| 2026-04-25 20:03 | 46.86237 | 13.34678 | 38076 ft | 416 kts | 307° |
| 2026-04-25 20:03 | 46.89772 | 13.27937 | 38076 ft | 416 kts | 307° |
| 2026-04-25 20:04 | 46.93301 | 13.21188 | 38071 ft | 416 kts | 307° |
| 2026-04-25 20:04 | 46.96794 | 13.14490 | 38084 ft | 416 kts | 307° |
| 2026-04-25 20:05 | 47.00305 | 13.07735 | 38094 ft | 416 kts | 307° |
| 2026-04-25 20:05 | 47.03816 | 13.00979 | 38103 ft | 416 kts | 307° |
| 2026-04-25 20:06 | 47.07299 | 12.94261 | 38122 ft | 415 kts | 307° |
| 2026-04-25 20:06 | 47.10801 | 12.87494 | 38118 ft | 415 kts | 307° |
| 2026-04-25 20:07 | 47.14280 | 12.80755 | 38106 ft | 416 kts | 307° |
| 2026-04-25 20:07 | 47.17183 | 12.75114 | 38110 ft | 414 kts | 307° |
| 2026-04-25 20:08 | 47.20675 | 12.68321 | 38115 ft | 416 kts | 307° |
| 2026-04-25 20:08 | 47.24167 | 12.61514 | 38112 ft | 415 kts | 307° |
| 2026-04-25 20:09 | 47.27622 | 12.54745 | 38116 ft | 416 kts | 307° |
| 2026-04-25 20:09 | 47.31087 | 12.47923 | 38099 ft | 416 kts | 307° |
| 2026-04-25 20:10 | 47.34560 | 12.41086 | 38125 ft | 416 kts | 307° |
| 2026-04-25 20:10 | 47.38035 | 12.34250 | 38122 ft | 416 kts | 307° |
| 2026-04-25 20:11 | 47.41499 | 12.27394 | 38125 ft | 416 kts | 307° |
| 2026-04-25 20:11 | 47.44963 | 12.20531 | 38116 ft | 415 kts | 307° |
| 2026-04-25 20:12 | 47.48390 | 12.13719 | 38116 ft | 416 kts | 307° |
| 2026-04-25 20:12 | 47.51287 | 12.07958 | 38114 ft | 416 kts | 307° |
| 2026-04-25 20:13 | 47.55297 | 11.99943 | 38116 ft | 416 kts | 307° |
| 2026-04-25 20:13 | 47.58726 | 11.93081 | 38115 ft | 416 kts | 307° |
| 2026-04-25 20:14 | 47.62173 | 11.86178 | 38130 ft | 415 kts | 307° |
| 2026-04-25 20:14 | 47.65588 | 11.79317 | 38115 ft | 414 kts | 306° |
| 2026-04-25 20:15 | 47.69007 | 11.72427 | 38118 ft | 414 kts | 307° |
| 2026-04-25 20:15 | 47.72412 | 11.65536 | 38116 ft | 413 kts | 306° |
| 2026-04-25 20:16 | 47.75811 | 11.58627 | 38115 ft | 413 kts | 306° |
| 2026-04-25 20:16 | 47.79210 | 11.51715 | 38122 ft | 413 kts | 306° |
| 2026-04-25 20:17 | 47.82584 | 11.44840 | 38121 ft | 413 kts | 306° |
| 2026-04-25 20:17 | 47.85976 | 11.37922 | 38139 ft | 413 kts | 306° |
| 2026-04-25 20:18 | 47.89360 | 11.30997 | 38162 ft | 413 kts | 306° |
| 2026-04-25 20:18 | 47.92729 | 11.24069 | 38158 ft | 412 kts | 306° |
| 2026-04-25 20:19 | 47.96069 | 11.17191 | 38152 ft | 412 kts | 306° |
| 2026-04-25 20:19 | 47.99429 | 11.10253 | 38151 ft | 412 kts | 306° |
| 2026-04-25 20:20 | 48.02788 | 11.03301 | 38129 ft | 412 kts | 306° |
| 2026-04-25 20:20 | 48.06127 | 10.96383 | 38125 ft | 412 kts | 306° |
| 2026-04-25 20:21 | 48.09482 | 10.89409 | 38124 ft | 412 kts | 306° |
| 2026-04-25 20:21 | 48.12833 | 10.82424 | 38127 ft | 412 kts | 306° |
| 2026-04-25 20:22 | 48.15616 | 10.76615 | 38147 ft | 412 kts | 306° |
| 2026-04-25 20:22 | 48.19495 | 10.68487 | 38128 ft | 412 kts | 306° |
| 2026-04-25 20:23 | 48.22806 | 10.61531 | 38136 ft | 411 kts | 306° |
| 2026-04-25 20:23 | 48.26126 | 10.54542 | 38138 ft | 411 kts | 306° |
| 2026-04-25 20:24 | 48.29446 | 10.47533 | 38145 ft | 411 kts | 305° |
| 2026-04-25 20:24 | 48.32759 | 10.40517 | 38148 ft | 411 kts | 305° |
| 2026-04-25 20:25 | 48.36049 | 10.33530 | 38145 ft | 411 kts | 305° |
| 2026-04-25 20:25 | 48.39358 | 10.26486 | 38151 ft | 411 kts | 305° |
| 2026-04-25 20:26 | 48.42643 | 10.19484 | 38155 ft | 411 kts | 305° |
| 2026-04-25 20:26 | 48.45933 | 10.12456 | 38157 ft | 411 kts | 305° |
| 2026-04-25 20:27 | 48.49221 | 10.05403 | 38158 ft | 411 kts | 305° |
| 2026-04-25 20:27 | 48.52509 | 9.98322 | 38150 ft | 411 kts | 305° |
| 2026-04-25 20:28 | 48.55775 | 9.91273 | 38151 ft | 411 kts | 305° |
| 2026-04-25 20:28 | 48.59058 | 9.84160 | 38154 ft | 412 kts | 305° |
| 2026-04-25 20:29 | 48.62327 | 9.77083 | 38158 ft | 412 kts | 305° |
| 2026-04-25 20:29 | 48.65614 | 9.69952 | 38157 ft | 412 kts | 305° |
| 2026-04-25 20:30 | 48.68901 | 9.62887 | 38167 ft | 412 kts | 306° |
| 2026-04-25 20:30 | 48.72360 | 9.55982 | 38161 ft | 411 kts | 308° |
| 2026-04-25 20:31 | 48.75859 | 9.49108 | 38162 ft | 411 kts | 307° |
| 2026-04-25 20:31 | 48.79323 | 9.42199 | 38156 ft | 410 kts | 307° |
| 2026-04-25 20:32 | 48.82735 | 9.35307 | 38156 ft | 410 kts | 307° |
| 2026-04-25 20:32 | 48.86160 | 9.28362 | 38154 ft | 410 kts | 307° |
| 2026-04-25 20:33 | 48.89576 | 9.21430 | 38142 ft | 409 kts | 307° |
| 2026-04-25 20:33 | 48.92402 | 9.15681 | 38142 ft | 409 kts | 307° |
| 2026-04-25 20:34 | 48.96384 | 9.07555 | 38155 ft | 409 kts | 306° |
| 2026-04-25 20:34 | 48.99781 | 9.00606 | 38152 ft | 408 kts | 306° |
| 2026-04-25 20:35 | 49.03154 | 8.93692 | 38146 ft | 408 kts | 306° |
| 2026-04-25 20:35 | 49.06548 | 8.86715 | 38146 ft | 408 kts | 306° |
| 2026-04-25 20:36 | 49.09915 | 8.79771 | 38130 ft | 408 kts | 306° |
| 2026-04-25 20:36 | 49.13304 | 8.72776 | 38133 ft | 409 kts | 306° |
| 2026-04-25 20:37 | 49.16666 | 8.65812 | 38135 ft | 409 kts | 306° |
| 2026-04-25 20:37 | 49.20050 | 8.58783 | 38139 ft | 410 kts | 306° |
| 2026-04-25 20:38 | 49.23429 | 8.51747 | 38172 ft | 410 kts | 306° |
| 2026-04-25 20:38 | 49.26784 | 8.44730 | 38174 ft | 410 kts | 306° |
| 2026-04-25 20:39 | 49.30157 | 8.37673 | 38156 ft | 410 kts | 306° |
| 2026-04-25 20:39 | 49.32407 | 8.32953 | 38158 ft | 410 kts | 305° |
| 2026-04-25 20:40 | 49.36883 | 8.23538 | 38161 ft | 409 kts | 305° |
| 2026-04-25 20:40 | 49.40235 | 8.16463 | 38160 ft | 409 kts | 305° |
| 2026-04-25 20:41 | 49.43578 | 8.09384 | 38163 ft | 409 kts | 305° |
| 2026-04-25 20:41 | 49.46905 | 8.02330 | 38157 ft | 409 kts | 305° |
| 2026-04-25 20:42 | 49.50251 | 7.95227 | 38156 ft | 410 kts | 305° |
| 2026-04-25 20:42 | 49.53596 | 7.88100 | 38159 ft | 410 kts | 304° |
| 2026-04-25 20:43 | 49.56912 | 7.81003 | 38158 ft | 410 kts | 304° |
| 2026-04-25 20:43 | 49.60248 | 7.73861 | 38161 ft | 410 kts | 304° |
| 2026-04-25 20:44 | 49.63582 | 7.66711 | 38166 ft | 410 kts | 304° |
| 2026-04-25 20:44 | 49.66919 | 7.59526 | 38144 ft | 411 kts | 304° |
| 2026-04-25 20:45 | 49.70240 | 7.52326 | 38154 ft | 412 kts | 304° |
| 2026-04-25 20:45 | 49.73552 | 7.45141 | 38183 ft | 412 kts | 304° |
| 2026-04-25 20:46 | 49.76883 | 7.37886 | 38182 ft | 413 kts | 304° |
| 2026-04-25 20:46 | 49.80210 | 7.30640 | 38183 ft | 413 kts | 304° |
| 2026-04-25 20:47 | 49.82973 | 7.24617 | 38184 ft | 413 kts | 304° |
| 2026-04-25 20:47 | 49.86837 | 7.16150 | 38173 ft | 414 kts | 304° |
| 2026-04-25 20:48 | 49.89596 | 7.10059 | 38182 ft | 415 kts | 304° |
| 2026-04-25 20:48 | 49.92916 | 7.02716 | 38194 ft | 415 kts | 304° |
| 2026-04-25 20:49 | 49.96239 | 6.95374 | 38188 ft | 415 kts | 304° |
| 2026-04-25 20:49 | 49.99568 | 6.88016 | 38207 ft | 416 kts | 303° |
| 2026-04-25 20:50 | 50.02898 | 6.80643 | 38207 ft | 416 kts | 303° |
| 2026-04-25 20:50 | 50.05993 | 6.73070 | 38188 ft | 415 kts | 298° |
| 2026-04-25 20:51 | 50.08763 | 6.65242 | 38190 ft | 415 kts | 297° |
| 2026-04-25 20:51 | 50.11497 | 6.57324 | 38193 ft | 415 kts | 297° |
| 2026-04-25 20:52 | 50.13775 | 6.50732 | 38171 ft | 415 kts | 297° |
| 2026-04-25 20:52 | 50.16993 | 6.41448 | 38184 ft | 415 kts | 297° |
| 2026-04-25 20:53 | 50.19753 | 6.33512 | 38176 ft | 416 kts | 297° |
| 2026-04-25 20:53 | 50.22500 | 6.25586 | 38174 ft | 416 kts | 297° |
| 2026-04-25 20:54 | 50.25247 | 6.17597 | 38193 ft | 417 kts | 297° |
| 2026-04-25 20:54 | 50.27977 | 6.09627 | 38203 ft | 417 kts | 297° |
| 2026-04-25 20:55 | 50.30721 | 6.01605 | 38212 ft | 417 kts | 297° |
| 2026-04-25 20:55 | 50.33444 | 5.93618 | 38203 ft | 417 kts | 297° |
| 2026-04-25 20:56 | 50.36177 | 5.85576 | 38209 ft | 418 kts | 296° |
| 2026-04-25 20:56 | 50.38909 | 5.77516 | 38210 ft | 419 kts | 297° |
| 2026-04-25 20:57 | 50.41628 | 5.69478 | 38220 ft | 419 kts | 296° |
| 2026-04-25 20:57 | 50.44348 | 5.61382 | 38217 ft | 419 kts | 296° |
| 2026-04-25 20:58 | 50.47062 | 5.53279 | 38228 ft | 419 kts | 296° |
| 2026-04-25 20:58 | 50.49776 | 5.45170 | 38233 ft | 419 kts | 296° |
| 2026-04-25 20:59 | 50.52472 | 5.37065 | 38236 ft | 420 kts | 296° |
| 2026-04-25 20:59 | 50.55171 | 5.28942 | 38243 ft | 420 kts | 296° |
| 2026-04-25 21:00 | 50.57422 | 5.22169 | 38232 ft | 420 kts | 296° |
| 2026-04-25 21:01 | 50.61918 | 5.08566 | 38240 ft | 420 kts | 296° |
| 2026-04-25 21:01 | 50.64603 | 5.00367 | 38239 ft | 421 kts | 296° |
| 2026-04-25 21:02 | 50.67290 | 4.92159 | 38239 ft | 421 kts | 296° |
| 2026-04-25 21:02 | 50.69976 | 4.83936 | 38233 ft | 421 kts | 296° |
| 2026-04-25 21:03 | 50.72640 | 4.75741 | 38244 ft | 422 kts | 296° |
| 2026-04-25 21:03 | 50.75320 | 4.67484 | 38263 ft | 422 kts | 296° |
| 2026-04-25 21:04 | 50.77985 | 4.59262 | 38263 ft | 422 kts | 296° |
| 2026-04-25 21:04 | 50.80642 | 4.50984 | 38272 ft | 423 kts | 296° |
| 2026-04-25 21:05 | 50.83311 | 4.42664 | 38262 ft | 424 kts | 296° |
| 2026-04-25 21:05 | 50.85978 | 4.34343 | 38266 ft | 424 kts | 296° |
| 2026-04-25 21:06 | 50.88639 | 4.25999 | 38260 ft | 424 kts | 296° |
| 2026-04-25 21:06 | 50.91281 | 4.17681 | 38251 ft | 424 kts | 296° |
| 2026-04-25 21:07 | 50.93945 | 4.09295 | 38248 ft | 424 kts | 296° |
| 2026-04-25 21:07 | 50.96569 | 4.00979 | 38247 ft | 424 kts | 296° |
| 2026-04-25 21:08 | 50.99206 | 3.92575 | 38248 ft | 424 kts | 296° |
| 2026-04-25 21:08 | 51.01836 | 3.84158 | 38245 ft | 424 kts | 296° |
| 2026-04-25 21:09 | 51.05758 | 3.71611 | 38244 ft | 425 kts | 296° |
| 2026-04-25 21:09 | 51.08386 | 3.63172 | 38245 ft | 425 kts | 296° |
| 2026-04-25 21:10 | 51.11003 | 3.54723 | 38256 ft | 425 kts | 296° |
| 2026-04-25 21:10 | 51.13597 | 3.46317 | 38254 ft | 425 kts | 296° |
| 2026-04-25 21:11 | 51.16199 | 3.37851 | 38255 ft | 425 kts | 295° |
| 2026-04-25 21:11 | 51.18792 | 3.29366 | 38257 ft | 425 kts | 296° |
| 2026-04-25 21:12 | 51.21385 | 3.20889 | 38259 ft | 425 kts | 296° |
| 2026-04-25 21:12 | 51.23544 | 3.13814 | 38259 ft | 425 kts | 296° |
| 2026-04-25 21:13 | 51.26554 | 3.03907 | 38263 ft | 426 kts | 295° |
| 2026-04-25 21:13 | 51.29133 | 2.95372 | 38266 ft | 425 kts | 295° |
| 2026-04-25 21:14 | 51.31701 | 2.86831 | 38270 ft | 426 kts | 295° |
| 2026-04-25 21:14 | 51.34264 | 2.78276 | 38265 ft | 426 kts | 295° |
| 2026-04-25 21:15 | 51.35948 | 2.69281 | 38264 ft | 425 kts | 281° |
| 2026-04-25 21:15 | 51.37090 | 2.59973 | 38264 ft | 426 kts | 282° |
| 2026-04-25 21:16 | 51.38229 | 2.50709 | 38263 ft | 426 kts | 282° |
| 2026-04-25 21:16 | 51.39368 | 2.41376 | 38266 ft | 426 kts | 281° |
| 2026-04-25 21:17 | 51.40493 | 2.32036 | 38269 ft | 426 kts | 281° |
| 2026-04-25 21:17 | 51.41602 | 2.22745 | 38270 ft | 426 kts | 281° |
| 2026-04-25 21:18 | 51.42736 | 2.13384 | 38276 ft | 426 kts | 281° |
| 2026-04-25 21:18 | 51.43897 | 2.04077 | 38270 ft | 426 kts | 285° |
| 2026-04-25 21:19 | 51.46201 | 1.95464 | 38271 ft | 425 kts | 303° |
| 2026-04-25 21:19 | 51.49438 | 1.87511 | 38269 ft | 425 kts | 302° |
| 2026-04-25 21:20 | 51.51590 | 1.82174 | 38270 ft | 425 kts | 302° |
| 2026-04-25 21:20 | 51.55838 | 1.71560 | 38279 ft | 425 kts | 302° |
| 2026-04-25 21:21 | 51.59043 | 1.63543 | 38282 ft | 426 kts | 302° |
| 2026-04-25 21:21 | 51.62252 | 1.55516 | 38286 ft | 426 kts | 302° |
| 2026-04-25 21:22 | 51.65461 | 1.47470 | 38284 ft | 426 kts | 302° |
| 2026-04-25 21:22 | 51.68641 | 1.39464 | 38281 ft | 426 kts | 302° |
| 2026-04-25 21:23 | 51.71831 | 1.31384 | 38279 ft | 427 kts | 302° |
| 2026-04-25 21:23 | 51.75019 | 1.23289 | 38275 ft | 427 kts | 302° |
| 2026-04-25 21:24 | 51.78197 | 1.15168 | 38274 ft | 427 kts | 301° |
| 2026-04-25 21:24 | 51.81344 | 1.07101 | 38281 ft | 427 kts | 302° |
| 2026-04-25 21:25 | 51.84513 | 0.98967 | 38286 ft | 427 kts | 302° |
| 2026-04-25 21:25 | 51.87678 | 0.90825 | 38274 ft | 427 kts | 301° |
| 2026-04-25 21:26 | 51.90815 | 0.82730 | 38277 ft | 427 kts | 301° |
| 2026-04-25 21:26 | 51.93962 | 0.74572 | 38271 ft | 427 kts | 301° |
| 2026-04-25 21:27 | 51.97102 | 0.66410 | 38274 ft | 426 kts | 301° |
| 2026-04-25 21:27 | 52.00249 | 0.58213 | 38273 ft | 426 kts | 301° |
| 2026-04-25 21:28 | 52.03366 | 0.50083 | 38263 ft | 426 kts | 301° |
| 2026-04-25 21:28 | 52.06492 | 0.41895 | 38262 ft | 426 kts | 301° |
| 2026-04-25 21:29 | 52.09087 | 0.35072 | 38262 ft | 426 kts | 301° |
| 2026-04-25 21:29 | 52.12713 | 0.25501 | 38263 ft | 427 kts | 301° |
| 2026-04-25 21:30 | 52.15322 | 0.18596 | 38254 ft | 427 kts | 301° |
| 2026-04-25 21:30 | 52.16858 | 0.14521 | 37982 ft | 427 kts | 301° |
| 2026-04-25 21:30 | 52.17889 | 0.11780 | 37800 ft | 426 kts | 301° |
| 2026-04-25 21:31 | 52.19963 | 0.06253 | 37429 ft | 426 kts | 301° |
| 2026-04-25 21:31 | 52.21507 | 0.02132 | 37167 ft | 426 kts | 301° |
| 2026-04-25 21:31 | 52.23055 | -0.02002 | 36716 ft | 425 kts | 301° |
| 2026-04-25 21:31 | 52.24578 | -0.06068 | 36140 ft | 424 kts | 301° |
| 2026-04-25 21:32 | 52.26119 | -0.10183 | 35485 ft | 425 kts | 301° |
| 2026-04-25 21:32 | 52.27662 | -0.14315 | 34790 ft | 427 kts | 301° |
| 2026-04-25 21:32 | 52.29216 | -0.18488 | 33957 ft | 432 kts | 301° |
| 2026-04-25 21:32 | 52.30769 | -0.22672 | 33451 ft | 427 kts | 301° |
| 2026-04-25 21:33 | 52.32305 | -0.26818 | 32923 ft | 423 kts | 301° |
| 2026-04-25 21:33 | 52.33827 | -0.30925 | 32390 ft | 420 kts | 301° |
| 2026-04-25 21:33 | 52.35337 | -0.35006 | 31891 ft | 416 kts | 301° |
| 2026-04-25 21:33 | 52.36809 | -0.38995 | 31369 ft | 412 kts | 301° |
| 2026-04-25 21:34 | 52.38286 | -0.43011 | 30871 ft | 408 kts | 301° |
| 2026-04-25 21:34 | 52.39744 | -0.46980 | 30374 ft | 405 kts | 301° |
| 2026-04-25 21:34 | 52.41186 | -0.50905 | 29832 ft | 400 kts | 301° |
| 2026-04-25 21:34 | 52.42611 | -0.54784 | 29349 ft | 395 kts | 301° |
| 2026-04-25 21:35 | 52.44000 | -0.58577 | 28873 ft | 390 kts | 301° |
| 2026-04-25 21:35 | 52.45387 | -0.62367 | 28401 ft | 385 kts | 301° |
| 2026-04-25 21:35 | 52.46756 | -0.66118 | 27934 ft | 380 kts | 301° |
| 2026-04-25 21:35 | 52.48104 | -0.69812 | 27489 ft | 375 kts | 301° |
| 2026-04-25 21:36 | 52.49441 | -0.73484 | 27044 ft | 371 kts | 301° |
| 2026-04-25 21:36 | 52.50754 | -0.77097 | 26604 ft | 366 kts | 301° |
| 2026-04-25 21:36 | 52.52048 | -0.80665 | 26188 ft | 362 kts | 301° |
| 2026-04-25 21:36 | 52.53327 | -0.84195 | 25786 ft | 357 kts | 301° |
| 2026-04-25 21:37 | 52.54592 | -0.87689 | 25388 ft | 353 kts | 301° |
| 2026-04-25 21:37 | 52.55423 | -0.89985 | 25119 ft | 351 kts | 301° |
| 2026-04-25 21:37 | 52.57123 | -0.94687 | 24518 ft | 379 kts | 301° |
| 2026-04-25 21:37 | 52.58502 | -0.98511 | 24043 ft | 396 kts | 301° |
| 2026-04-25 21:38 | 52.59915 | -1.02444 | 23506 ft | 400 kts | 300° |
| 2026-04-25 21:38 | 52.61334 | -1.06394 | 22956 ft | 399 kts | 300° |
| 2026-04-25 21:38 | 52.62747 | -1.10329 | 22421 ft | 397 kts | 300° |
| 2026-04-25 21:38 | 52.64145 | -1.14228 | 21889 ft | 394 kts | 300° |
| 2026-04-25 21:39 | 52.65513 | -1.18059 | 21376 ft | 391 kts | 300° |
| 2026-04-25 21:39 | 52.66889 | -1.21919 | 20866 ft | 389 kts | 300° |
| 2026-04-25 21:39 | 52.68254 | -1.25748 | 20379 ft | 386 kts | 300° |
| 2026-04-25 21:39 | 52.69776 | -1.29377 | 20198 ft | 385 kts | 310° |
| 2026-04-25 21:40 | 52.71715 | -1.32329 | 20215 ft | 372 kts | 323° |
| 2026-04-25 21:40 | 52.73847 | -1.34573 | 20298 ft | 354 kts | 327° |
| 2026-04-25 21:40 | 52.75901 | -1.36661 | 20306 ft | 338 kts | 327° |
| 2026-04-25 21:40 | 52.77927 | -1.38733 | 20315 ft | 351 kts | 327° |
| 2026-04-25 21:41 | 52.80014 | -1.40876 | 20301 ft | 360 kts | 327° |
| 2026-04-25 21:41 | 52.82156 | -1.43079 | 20307 ft | 363 kts | 327° |
| 2026-04-25 21:41 | 52.84303 | -1.45285 | 20307 ft | 364 kts | 327° |
| 2026-04-25 21:41 | 52.86454 | -1.47490 | 20302 ft | 364 kts | 327° |
| 2026-04-25 21:42 | 52.88616 | -1.49703 | 20300 ft | 364 kts | 327° |
| 2026-04-25 21:42 | 52.90771 | -1.51913 | 20294 ft | 364 kts | 327° |
| 2026-04-25 21:42 | 52.92930 | -1.54134 | 20107 ft | 365 kts | 327° |
| 2026-04-25 21:42 | 52.95110 | -1.56382 | 19361 ft | 370 kts | 327° |
| 2026-04-25 21:43 | 52.97243 | -1.58577 | 19128 ft | 360 kts | 327° |
| 2026-04-25 21:43 | 52.99354 | -1.60750 | 18741 ft | 355 kts | 327° |
| 2026-04-25 21:43 | 53.01450 | -1.62913 | 18233 ft | 353 kts | 327° |
| 2026-04-25 21:43 | 53.03534 | -1.65069 | 17726 ft | 351 kts | 327° |
| 2026-04-25 21:44 | 53.05509 | -1.67431 | 17230 ft | 348 kts | 316° |
| 2026-04-25 21:44 | 53.07133 | -1.70371 | 16732 ft | 345 kts | 309° |
| 2026-04-25 21:44 | 53.10244 | -1.76427 | 15786 ft | 341 kts | 310° |
| 2026-04-25 21:45 | 53.11799 | -1.79438 | 15094 ft | 346 kts | 309° |
| 2026-04-25 21:45 | 53.12844 | -1.81462 | 14411 ft | 346 kts | 310° |
| 2026-04-25 21:45 | 53.14925 | -1.85491 | 12984 ft | 340 kts | 310° |
| 2026-04-25 21:45 | 53.16458 | -1.88462 | 11924 ft | 336 kts | 310° |
| 2026-04-25 21:46 | 53.17951 | -1.91365 | 10920 ft | 332 kts | 309° |
| 2026-04-25 21:46 | 53.19442 | -1.94280 | 9901 ft | 329 kts | 309° |
| 2026-04-25 21:46 | 53.20916 | -1.97170 | 8819 ft | 325 kts | 309° |
| 2026-04-25 21:46 | 53.22375 | -2.00033 | 7840 ft | 321 kts | 309° |
| 2026-04-25 21:47 | 53.23795 | -2.02815 | 7692 ft | 309 kts | 309° |
| 2026-04-25 21:47 | 53.24931 | -2.05848 | 7477 ft | 308 kts | 288° |
| 2026-04-25 21:47 | 53.25223 | -2.09359 | 7239 ft | 306 kts | 264° |
| 2026-04-25 21:47 | 53.24624 | -2.12719 | 6993 ft | 302 kts | 243° |
| 2026-04-25 21:48 | 53.23640 | -2.15771 | 6754 ft | 299 kts | 240° |
| 2026-04-25 21:48 | 53.22637 | -2.18741 | 6493 ft | 290 kts | 240° |
| 2026-04-25 21:48 | 53.21660 | -2.21635 | 6287 ft | 280 kts | 240° |
| 2026-04-25 21:48 | 53.20732 | -2.24402 | 6237 ft | 264 kts | 240° |
| 2026-04-25 21:49 | 53.19858 | -2.27016 | 6055 ft | 255 kts | 240° |
| 2026-04-25 21:49 | 53.19007 | -2.29582 | 5794 ft | 249 kts | 240° |
| 2026-04-25 21:49 | 53.18191 | -2.32058 | 5545 ft | 244 kts | 240° |
| 2026-04-25 21:49 | 53.17384 | -2.34517 | 5292 ft | 240 kts | 240° |
| 2026-04-25 21:50 | 53.16595 | -2.36944 | 5049 ft | 234 kts | 240° |
| 2026-04-25 21:50 | 53.15839 | -2.39303 | 4809 ft | 228 kts | 240° |
| 2026-04-25 21:50 | 53.15100 | -2.41641 | 4550 ft | 228 kts | 243° |
| 2026-04-25 21:50 | 53.14817 | -2.43312 | 4366 ft | 228 kts | 264° |
| 2026-04-25 21:51 | 53.15435 | -2.46532 | 4041 ft | 218 kts | 308° |
| 2026-04-25 21:51 | 53.16582 | -2.48069 | 3797 ft | 206 kts | 323° |
| 2026-04-25 21:51 | 53.17738 | -2.49341 | 3560 ft | 197 kts | 325° |
| 2026-04-25 21:51 | 53.18894 | -2.50597 | 3404 ft | 195 kts | 324° |
| 2026-04-25 21:52 | 53.20013 | -2.51809 | 3246 ft | 194 kts | 325° |
| 2026-04-25 21:52 | 53.21265 | -2.52594 | 3099 ft | 193 kts | 354° |
| 2026-04-25 21:52 | 53.22585 | -2.52219 | 3014 ft | 194 kts | 26° |
| 2026-04-25 21:52 | 53.23618 | -2.50791 | 3035 ft | 195 kts | 51° |
| 2026-04-25 21:53 | 53.24476 | -2.49028 | 2888 ft | 194 kts | 52° |
| 2026-04-25 21:53 | 53.25317 | -2.47289 | 2659 ft | 190 kts | 54° |
| 2026-04-25 21:53 | 53.26123 | -2.45632 | 2416 ft | 177 kts | 54° |
| 2026-04-25 21:53 | 53.26875 | -2.44088 | 2190 ft | 170 kts | 54° |
| 2026-04-25 21:54 | 53.27619 | -2.42559 | 1965 ft | 165 kts | 54° |
| 2026-04-25 21:54 | 53.28317 | -2.41127 | 1746 ft | 154 kts | 56° |
| 2026-04-25 21:54 | 53.28973 | -2.39777 | 1532 ft | 146 kts | 55° |
| 2026-04-25 21:54 | 53.29603 | -2.38478 | 1352 ft | 142 kts | 54° |
| 2026-04-25 21:55 | 53.30219 | -2.37211 | 1153 ft | 140 kts | 54° |
| 2026-04-25 21:55 | 53.30825 | -2.35961 | 960 ft | 138 kts | 53° |
| 2026-04-25 21:55 | 53.31426 | -2.34720 | 786 ft | 137 kts | 53° |
| 2026-04-25 21:55 | 53.32021 | -2.33493 | 591 ft | 135 kts | 52° |
| 2026-04-25 21:56 | 53.32614 | -2.32274 | 405 ft | 136 kts | 52° |
| 2026-04-25 21:56 | 53.33007 | -2.31467 | 319 ft | 137 kts | 51° |
| 2026-04-25 21:56 | 53.33766 | -2.29889 | 231 ft | 108 kts | 51° |
| 2026-04-25 21:56 | 53.34116 | -2.29166 | 231 ft | 56 kts | 51° |
| 2026-04-25 21:57 | 53.34301 | -2.28786 | 227 ft | 38 kts | 49° |
| 2026-04-25 21:57 | 53.34499 | -2.28543 | 228 ft | 30 kts | 20° |
| 2026-04-25 21:57 | 53.34637 | -2.28451 | 230 ft | 20 kts | 20° |
| 2026-04-25 21:57 | 53.34746 | -2.28328 | 230 ft | 19 kts | 50° |
| 2026-04-25 21:58 | 53.34827 | -2.28163 | 231 ft | 18 kts | 51° |
| 2026-04-25 21:58 | 53.34909 | -2.27993 | 231 ft | 19 kts | 51° |
| 2026-04-25 21:58 | 53.34989 | -2.27824 | 229 ft | 19 kts | 51° |
| 2026-04-25 21:58 | 53.35094 | -2.27609 | 234 ft | 28 kts | 51° |
| 2026-04-25 21:59 | 53.35199 | -2.27390 | 237 ft | 22 kts | 51° |
| 2026-04-25 21:59 | 53.35295 | -2.27213 | 241 ft | 19 kts | 32° |
| 2026-04-25 21:59 | 53.35402 | -2.27226 | 246 ft | 15 kts | 324° |
| 2026-04-25 22:00 | 53.35537 | -2.27409 | 247 ft | 11 kts | 321° |
| 2026-04-25 22:00 | 53.35550 | -2.27427 | 246 ft | 4 kts | 321° |
| 2026-04-25 22:00 | 53.35615 | -2.27513 | 245 ft | 17 kts | 321° |
| 2026-04-25 22:00 | 53.35646 | -2.27556 | 246 ft | 0 kts | 321° |
| 2026-04-25 22:01 | 53.35656 | -2.27570 | 246 ft | 7 kts | 321° |
| 2026-04-25 22:01 | 53.35730 | -2.27638 | 249 ft | 11 kts | 338° |
| 2026-04-25 22:01 | 53.35797 | -2.27703 | 251 ft | 17 kts | 318° |
| 2026-04-25 22:01 | 53.35856 | -2.27812 | 253 ft | 19 kts | 317° |
| 2026-04-25 22:02 | 53.35997 | -2.27903 | 255 ft | 15 kts | 319° |
| 2026-04-25 22:02 | 53.36075 | -2.28021 | 255 ft | 15 kts | 317° |
| 2026-04-25 22:02 | 53.36151 | -2.28141 | 255 ft | 17 kts | 316° |
| 2026-04-25 22:02 | 53.36258 | -2.28323 | 255 ft | 24 kts | 313° |
| 2026-04-25 22:03 | 53.36366 | -2.28474 | 255 ft | 16 kts | 344° |
| 2026-04-25 22:03 | 53.36459 | -2.28549 | 255 ft | 15 kts | 320° |
| 2026-04-25 22:03 | 53.36528 | -2.28669 | 255 ft | 14 kts | 314° |
| 2026-04-25 22:03 | 53.36597 | -2.28775 | 255 ft | 13 kts | 338° |
| 2026-04-25 22:04 | 53.36678 | -2.28701 | 255 ft | 18 kts | 44° |
| 2026-04-25 22:04 | 53.36770 | -2.28551 | 255 ft | 12 kts | 45° |
| 2026-04-25 22:04 | 53.36775 | -2.28546 | 255 ft | 1 kts | 26° |
| 2026-04-25 22:04 | 53.36802 | -2.28600 | 255 ft | 12 kts | 314° |
| 2026-04-25 22:05 | 53.36816 | -2.28623 | 255 ft | 2 kts | 314° |
| 2026-04-25 22:05 | 53.36819 | -2.28627 | 255 ft | 1 kts | 315° |